• Join FlightAware (Why Join?)
  • Login
  • US Flag GB Flag 
17:49 EST


 

Airport Tracker/Info


-or-


 

Live Flight TrackerFlight Track Log ✈ N521PF ✈ 06-May-2013 ✈ KSFO - KSBP

Flight Track Log - Related Links

Times and Time Zones

All times are in EDT time to prevent confusion due to time zone crossing. See the N521PF flight status page for this flight to view local times or setup timezone preferences in your user account.

Time Position Orientation Groundspeed Altitude Reporting Facility
EDT Latitude Longitude Course Direction KTS MPH feet Rate Location/Type
11:22 37.6500 -122.3667 149° Southeast 179 206 1,000  Level Northern Cal TRACON
11:23 37.7000 -122.4000 332° Northwest 240 276 3,200 2,385 Climbing Northern Cal TRACON
11:25 37.6147 -122.3369 180° South  Level Estimated
11:26 37.5667 -122.5000 180° South 258 297 10,300  Level Northern Cal TRACON
11:28 37.2270 -122.0813 149° Southeast  Level Estimated
11:28 37.4695 -122.5000 180° South  Level FlightAware Approximate
11:28 37.4167 -122.5167 180° South 286 329 13,300  Level Northern Cal TRACON
11:29 37.3750 -122.5258 190° South 285 328 14,100 1,423 Climbing Oakland Center
11:31 37.2200 -122.5436 185° South 287 330 17,000 1,279 Climbing Los Angeles Center
11:31 37.1833 -122.5500 188° South 302 348 17,000 77 Level Northern Cal TRACON
11:32 37.1548 -121.9995 180° South  Level Estimated
11:32 37.1000 -122.5500 180° South 330 380 17,100  Level Northern Cal TRACON
11:34 36.9758 -122.4250 141° Southeast 313 360 17,100 -36 Level Los Angeles Center
11:35 36.9167 -122.3667 142° Southeast 308 354 17,000  Descending Northern Cal TRACON
11:36 36.8333 -122.2833 141° Southeast 306 352 17,100 50 Climbing Northern Cal TRACON
11:37 36.7833 -122.2333 141° Southeast 309 356 17,100 -53 Level Northern Cal TRACON
11:38 36.7000 -122.1500 141° Southeast 309 356 17,000 -53 Descending Northern Cal TRACON
11:39 36.6500 -122.1000 141° Southeast 312 359 17,000  Level Northern Cal TRACON
11:40 36.5669 -122.0219 143° Southeast 313 360 17,000 -43 Level Oakland Center
11:41 36.4994 -121.9564 142° Southeast 310 357 16,900  Descending Oakland Center
11:43 36.3556 -121.8144 142° Southeast 310 357 17,000 64 Climbing Los Angeles Center
11:44 36.2878 -121.7489 142° Southeast 309 356 17,100 -50 Climbing Los Angeles Center
11:45 36.2178 -121.6853 144° Southeast 310 357 16,900 -32 Descending Oakland Center
11:47 36.0700 -121.5381 141° Southeast 312 359 17,000 65 Climbing Los Angeles Center
11:48 36.0019 -121.4708 141° Southeast 312 359 17,100 51 Climbing Oakland Center
11:49 35.9317 -121.4067 144° Southeast 312 359 17,100  Level Oakland Center
11:51 35.7953 -121.2728 141° Southeast 314 361 17,100 -32 Level Oakland Center
11:52 35.7356 -121.1917 132° Southeast 319 367 17,000  Descending Oakland Center
11:53 35.6733 -121.1158 135° Southeast 318 366 17,100 -946 Climbing Oakland Center
11:55 35.5497 -120.9639 135° Southeast 314 361 14,100 -1,761 Descending Oakland Center
11:56 35.4803 -120.8803 136° Southeast 300 345 11,700 -3,046 Descending Oakland Center
11:59 35.3642 -120.9028 189° South 235 270 4,100 -2,673 Descending Los Angeles Center
12:00 35.3542 -120.8408 101° East 182 209 2,700 -774 Descending Los Angeles Center
12:01 35.3214 -120.7917 129° Southeast 214 246 2,500 -496 Descending Los Angeles Center
12:02 35.2836 -120.7211 123° Southeast 201 231 1,700 -726 Descending Los Angeles Center
12:03 35.2558 -120.6747 126° Southeast 202 232 1,000 -689 Descending Los Angeles Center
12:05 35.2373 -120.6426 137° Southeast  Level Estimated
12:12 35.2373 -120.6426 313° West  Level Estimated
12:13 35.2373 -120.6426 313° West  Level Estimated
12:14 35.2373 -120.6426 313° West  Level Estimated
12:15 35.2373 -120.6426 313° West  Level Estimated
12:16 35.2373 -120.6426 313° West  Level Estimated
12:17 35.2373 -120.6426 313° West  Level Estimated